Language: 


Des rapports , des résumés tant et plus, au choix de chacun....


Données statistiques de la station
Quotidien Rapport Janvier 6, 2017 Unités:  Anglais    Métrique   les deux
« Précédent Jour
Suivant Jour »
Quotidien Hebdomadaire Mensuel Annuel Actuel
  Haut: Bas: Moyen:
Température: 36.7 °F 27 °F 31.6 °F
Pt de rosée: 30 °F 25.3 °F 27.3 °F
Humidité: 95 % 77 % 84 %
Vitesse du vent: 10.1 mph 0 mph 4 mph
Rafales: 20.1 mph - -
Vent:- - South
Pression: 30.7 in 30.6 in -
Précipitation: 0 in    
Historical Graphs
 
 
Données statistiques pour Janvier 6, 2017
Heure Température Point de rosée Pression Vent Vitesse du vent Refales Humidité Pluie (taux horaire)
00:09 28.6 °F 27 °F 30.6 in ENE 1.6 mph 4 mph 93 % 0 in
00:19 28.6 °F 27 °F 30.6 in ESE 2.7 mph 2.7 mph 93 % 0 in
00:29 28.6 °F 27 °F 30.6 in East 2 mph 2.9 mph 93 % 0 in
00:39 28.6 °F 27 °F 30.6 in ESE 3.8 mph 3.8 mph 93 % 0 in
00:49 28.6 °F 27 °F 30.6 in NE 3.1 mph 4.3 mph 93 % 0 in
00:59 28.6 °F 27 °F 30.6 in East 2.7 mph 3.8 mph 93 % 0 in
01:09 28.6 °F 27 °F 30.6 in East 1.6 mph 3.8 mph 93 % 0 in
01:19 28.6 °F 27 °F 30.6 in ESE 2.2 mph 3.4 mph 93 % 0 in
01:29 28.6 °F 27 °F 30.6 in Calm   2.9 mph 93 % 0 in
01:39 28.6 °F 27 °F 30.6 in Calm   1.6 mph 93 % 0 in
01:49 28.6 °F 27 °F 30.6 in Calm     93 % 0 in
01:59 28.6 °F 27 °F 30.6 in Calm     93 % 0 in
07:19 27.1 °F 25.3 °F 30.7 in Calm   2.5 mph 93 % 0 in
07:29 27.1 °F 25.3 °F 30.7 in Calm     93 % 0 in
07:39 27.1 °F 25.3 °F 30.7 in Calm     93 % 0 in
07:49 27.1 °F 25.3 °F 30.7 in Calm     93 % 0 in
07:59 27.1 °F 25.3 °F 30.7 in SE 3.1 mph 3.6 mph 93 % 0 in
08:09 27.1 °F 25.3 °F 30.7 in Calm   2.9 mph 93 % 0 in
08:19 27.1 °F 25.3 °F 30.7 in Calm   2.9 mph 93 % 0 in
08:29 27.1 °F 25.3 °F 30.7 in Calm   2.5 mph 93 % 0 in
08:39 27.1 °F 25.3 °F 30.7 in South 2.5 mph 3.4 mph 93 % 0 in
08:49 27 °F 25.5 °F 30.7 in South 2 mph 3.1 mph 95 % 0 in
08:59 27 °F 25.3 °F 30.7 in Calm   2.5 mph 94 % 0 in
09:09 27 °F 25.3 °F 30.7 in SSE 2 mph 3.8 mph 94 % 0 in
09:19 27 °F 25.3 °F 30.7 in SE 1.6 mph 2.7 mph 94 % 0 in
09:29 27.1 °F 26.1 °F 30.7 in SSE 2 mph 4 mph 95 % 0 in
09:39 27.1 °F 26.1 °F 30.7 in Calm   4 mph 95 % 0 in
09:49 27.1 °F 26.1 °F 30.7 in South 1.1 mph 2.7 mph 95 % 0 in
09:59 28 °F 27 °F 30.7 in South 2.7 mph 3.4 mph 95 % 0 in
10:19 28.8 °F 27.3 °F 30.7 in South 3.1 mph 5.4 mph 94 % 0 in
10:29 28.8 °F 27.3 °F 30.7 in SSW 6 mph 6 mph 94 % 0 in
10:39 28.8 °F 27.3 °F 30.7 in Calm   5.8 mph 94 % 0 in
10:49 28.8 °F 27.3 °F 30.7 in South 4.3 mph 6.5 mph 94 % 0 in
10:59 28.8 °F 27.3 °F 30.7 in South 3.6 mph 5.6 mph 94 % 0 in
11:09 28.8 °F 27.3 °F 30.7 in South 3.1 mph 5.8 mph 94 % 0 in
11:19 28.8 °F 27.3 °F 30.7 in South 4.3 mph 5.6 mph 94 % 0 in
11:29 28.8 °F 27.3 °F 30.7 in South 3.8 mph 5.8 mph 94 % 0 in
11:39 28.8 °F 27.3 °F 30.7 in South 3.8 mph 5.8 mph 94 % 0 in
11:49 28.8 °F 27.3 °F 30.7 in SSE 5.6 mph 7.2 mph 94 % 0 in
11:59 28.8 °F 27.3 °F 30.7 in SSW 3.8 mph 8.1 mph 94 % 0 in
12:09 35.8 °F 29.8 °F 30.7 in SSW 6.3 mph 6.5 mph 79 % 0 in
12:19 35.8 °F 29.8 °F 30.7 in South 4.3 mph 6.3 mph 79 % 0 in
12:29 36.1 °F 30 °F 30.7 in Calm   6 mph 78 % 0 in
12:39 36.3 °F 29.8 °F 30.7 in South 3.8 mph 6 mph 77 % 0 in
12:49 36.7 °F 30 °F 30.7 in South 3.8 mph 7.2 mph 77 % 0 in
12:59 36.7 °F 30 °F 30.7 in SSW 6.3 mph 6.3 mph 77 % 0 in
13:09 36.7 °F 30 °F 30.7 in South 3.4 mph 6.9 mph 77 % 0 in
13:19 36.7 °F 30 °F 30.7 in SW 3.6 mph 7.2 mph 77 % 0 in
13:29 36.7 °F 30 °F 30.6 in South 3.1 mph 19.7 mph 77 % 0 in
13:39 36.7 °F 30 °F 30.6 in South 4.3 mph 7.2 mph 77 % 0 in
13:49 36.7 °F 30 °F 30.6 in SSW 4 mph 6 mph 77 % 0 in
13:59 36.7 °F 30 °F 30.6 in SSW 6 mph 6 mph 77 % 0 in
14:09 36.7 °F 30 °F 30.6 in South 5.4 mph 7.4 mph 77 % 0 in
14:19 36.7 °F 30 °F 30.6 in South 1.6 mph 6 mph 77 % 0 in
14:29 36.7 °F 30 °F 30.7 in SSW 4.3 mph 9.6 mph 77 % 0 in
14:39 36.7 °F 30 °F 30.7 in SSE 2.9 mph 20.1 mph 77 % 0 in
14:49 36.7 °F 30 °F 30.7 in SSW 5.8 mph 8.5 mph 77 % 0 in
14:59 36.7 °F 30 °F 30.6 in South 5.8 mph 7.4 mph 77 % 0 in
15:09 36.7 °F 30 °F 30.6 in South 3.1 mph 7.2 mph 77 % 0 in
15:19 36.7 °F 30 °F 30.6 in South 6 mph 6.3 mph 77 % 0 in
15:29 36.7 °F 30 °F 30.6 in SSE 4 mph 7.8 mph 77 % 0 in
15:39 36.7 °F 30 °F 30.6 in South 5.8 mph 6 mph 77 % 0 in
15:49 36.7 °F 30 °F 30.6 in SSW 6 mph 6 mph 77 % 0 in
15:59 36.7 °F 30 °F 30.6 in South 10.1 mph 10.1 mph 77 % 0 in
16:09 36.7 °F 30 °F 30.6 in South 8.1 mph 8.1 mph 77 % 0 in
16:19 36.7 °F 30 °F 30.6 in South 6.3 mph 7.6 mph 77 % 0 in
16:29 36.7 °F 30 °F 30.6 in South 2.9 mph 7.4 mph 77 % 0 in
16:39 36.7 °F 30 °F 30.6 in South 2.7 mph 5.4 mph 77 % 0 in
16:49 36.7 °F 30 °F 30.6 in South 6 mph 9.2 mph 77 % 0 in
16:59 36.7 °F 30 °F 30.7 in SSE 2.9 mph 7.8 mph 77 % 0 in
17:09 36.7 °F 30 °F 30.6 in SSW 2.9 mph 6.5 mph 77 % 0 in
17:19 36.7 °F 30 °F 30.6 in SSW 5.4 mph 6 mph 77 % 0 in
17:29 36.7 °F 30 °F 30.6 in Calm   6.9 mph 77 % 0 in
17:39 32 °F 26.2 °F 30.6 in SSW 5.4 mph 7.2 mph 79 % 0 in
17:49 31.6 °F 25.9 °F 30.6 in South 8.5 mph 8.5 mph 79 % 0 in
17:59 31.5 °F 26.1 °F 30.6 in South 5.4 mph 8.7 mph 80 % 0 in
18:09 31.3 °F 26.1 °F 30.6 in South 3.6 mph 6.5 mph 81 % 0 in
18:19 31.3 °F 26.1 °F 30.6 in South 4.9 mph 6 mph 81 % 0 in
18:29 31.3 °F 26.1 °F 30.6 in South 4 mph 6.5 mph 81 % 0 in
18:39 31.3 °F 26.1 °F 30.6 in South 8.5 mph 8.5 mph 81 % 0 in
18:49 31.3 °F 26.1 °F 30.6 in South 5.4 mph 8.1 mph 81 % 0 in
18:59 31.3 °F 26.1 °F 30.6 in SSW 3.8 mph 7.4 mph 81 % 0 in
19:09 31.3 °F 26.1 °F 30.6 in South 5.6 mph 8.1 mph 81 % 0 in
19:19 31.3 °F 26.1 °F 30.6 in SSW 5.8 mph 8.5 mph 81 % 0 in
19:29 31.3 °F 26.1 °F 30.6 in South 4.3 mph 7.6 mph 81 % 0 in
19:40 31.3 °F 26.1 °F 30.6 in SSW 3.6 mph 8.5 mph 81 % 0 in
19:50 31.3 °F 26.1 °F 30.6 in South 6.3 mph 7.8 mph 81 % 0 in
20:00 31.3 °F 26.1 °F 30.6 in South 8.1 mph 8.1 mph 81 % 0 in
20:10 31.3 °F 26.1 °F 30.6 in South 4.7 mph 8.1 mph 81 % 0 in
20:20 31.3 °F 26.1 °F 30.6 in SW 4 mph 8.5 mph 81 % 0 in
20:30 31.3 °F 26.1 °F 30.6 in South 7.8 mph 9.6 mph 81 % 0 in
20:40 31.3 °F 26.1 °F 30.6 in South 3.8 mph 7.8 mph 81 % 0 in
20:50 31.3 °F 26.1 °F 30.6 in SW 3.4 mph 10.5 mph 81 % 0 in
21:00 31.3 °F 26.1 °F 30.6 in SSW 5.4 mph 8.1 mph 81 % 0 in
21:10 31.3 °F 26.1 °F 30.6 in South 5.4 mph 10.5 mph 81 % 0 in
21:20 31.3 °F 26.1 °F 30.6 in South 8.5 mph 10.1 mph 81 % 0 in
21:30 31.3 °F 26.1 °F 30.6 in SSW 5.4 mph 10.5 mph 81 % 0 in
21:40 31.3 °F 26.1 °F 30.6 in SSW 3.4 mph 9.8 mph 81 % 0 in
21:50 31.3 °F 26.1 °F 30.6 in South 7.2 mph 9.2 mph 81 % 0 in
22:00 31.3 °F 26.1 °F 30.6 in SSW 5.8 mph 8.5 mph 81 % 0 in
22:10 31.3 °F 26.1 °F 30.6 in South 3.6 mph 9.6 mph 81 % 0 in
22:20 31.3 °F 26.4 °F 30.6 in South 7.8 mph 9.8 mph 82 % 0 in
22:30 31.1 °F 26.2 °F 30.6 in South 6.3 mph 8.5 mph 82 % 0 in
22:40 31.1 °F 26.2 °F 30.6 in South 7.8 mph 8.7 mph 82 % 0 in
22:50 31.1 °F 26.2 °F 30.6 in South 8.7 mph 12.1 mph 82 % 0 in
23:00 31.1 °F 26.2 °F 30.6 in South 4.9 mph 9.8 mph 82 % 0 in
23:10 31.1 °F 26.1 °F 30.6 in SSW 6.3 mph 10.1 mph 81 % 0 in
23:20 31.1 °F 26.1 °F 30.6 in SSW 4.3 mph 10.3 mph 81 % 0 in
23:30 31.3 °F 26.1 °F 30.6 in SSW 8.1 mph 8.5 mph 81 % 0 in
23:40 31.3 °F 26.1 °F 30.6 in South 5.6 mph 8.7 mph 81 % 0 in
23:50 31.3 °F 26.1 °F 30.6 in SSW 7.8 mph 8.9 mph 81 % 0 in
Le Gheer Warneton
Courtoisie de Weather Underground - 1.5 mb

Mise a jour : 16-12-17 15:46:11
Généré par Cumulus 1.9.4 (1099)